Home PIREPS Pireps

Flight BEL11190TR

  • Submitted By: AndrĂ© Vincent
  • Departure Airport: Galeao (SBGL)
  • Arrival Airport: Amilcar Cabral Intl (GVAC)
  • Aircraft: YOUR CHOICE (YC)
  • Flight Time: 05.35
  • Date Submitted: 31/07/2016
  • Status: Accepted
Flight Details
Gross Revenue:
(25 load / € 0.00 per unit
€ 0.00
Fuel Cost:
(79968 fuel used @ 5.18 / unit)
€ 414,234.24

Additional Log Information:

View Log

Aircraft Used in flight is Boeing 747-400
07:42 Brakes are On
07:42 Brakes are Released
07:46 Landing Gear Up @ 221 Knots and 50 Feet
07:46 You Took off @ 231 Knots and Flaps at Position 2
Departure Weather
SBGL 310500Z 08010KT 9999 BKN030 20/16 Q1024rn
07:47 Below 10000 feet you are not allowed to go over 250 knots
12:54 You are Airborne and your Navigation Lights are off
13:11 Landing Gear Down @ 174 Knots and 1480 Feet
13:14 You Landed @ 141 Knots and with -450 Vertical Speed
Arrival Weather
GVAC 311100Z 07013KT 9999 SCT014 BKN200 29/23 Q1014 NOSIGrn
13:17 Brakes are On
13:18 Brussels Bel-Track1.0.1.2

Route Map

Corporate About Us Our Team Vacancies Information Fleet Route Network Rules and Regulations Operations Flight Schedules Event Center Tours Partners IVAO Vatsim Acars dev FSCB

fb Users Online No pilots online!
0 Pilot(s) and 115 Guest(s) Online
CMS by phpVMS - Design by Crazycreatives.com - Copyright © 2018 - Brussels Airlines Virtual